CYEK

Arviat Airport

Arviat, Canada
METAR CYEK 192200Z 01026G32KT 1SM -SN DRSN SCT006 OVC009 M01/M01 A2969 RMK SN1SF2ST5 M/M/0.4MM/LAST STFD OBS/NEXT 201400Z VIA CYQB SLP056
Observed Flight Rules
Oct-19 @ 22:00 UTC (15 hours ago) Instrument Flight Rules
Wind Visibility Clouds Conditions
10° at 26 knots
 Gusting to 32 knots
1 miles
  • Scattered at 600' AGL
  • Overcast at 900' AGL
  • Light Snow
  • Low drifting
  • Snow
Temperatures Readings
Current -1°C / 30°F
Dewpoint -1°C / 30°F
Humidity 100%
Altimeter 29.69" Hg
Pressure 1005.6 hPa
Elevation 10
METAR CYEK 192200Z 01026G32KT 1SM -SN DRSN SCT006 OVC009 M01/M01 A2969 RMK SN1SF2ST5 M/M/0.4MM/LAST STFD OBS/NEXT 201400Z VIA CYQB SLP056
Observed Flight Rules
Oct-19 @ 22:00 UTC
(15 hours ago)
IFR
Wind Visibility
10° at 26 knots
 Gusting to 32 knots
1 miles
Clouds
  • Scattered at 600' AGL
  • Overcast at 900' AGL
Conditions
  • Light Snow
  • Low drifting
  • Snow
Temperature Dewpoint
-1°C / 30°F -1°C / 30°F
Humidity Altimeter Pressure
100% 29.69" Hg 1005.6 hPa